Terminal Aerodrome Forecast
Issued by NWS

Home | Current Version | Previous Version | Text Only | Print | Product List | Glossary On
Versions: 1 2 3 4 5 6 7 8 9 10 11 12 13
000
FTUS45 KBOI 271720
TAFMYL
TAF
KMYL 271720Z 2718/2818 VRB05KT P6SM FEW200
     FM272000 19011G16KT P6SM FEW200
     FM280200 VRB05KT P6SM FEW200=

USA.gov is the U.S. government's official web portal to all federal, state and local government web resources and services.